sensor_id;sensor_type;location;lat;lon;timestamp;temperature;humidity
68766;DHT22;55756;45.582;11.484;2022-12-18T00:01:58;5.60;73.80
68766;DHT22;55756;45.582;11.484;2022-12-18T00:04:25;5.50;73.90
68766;DHT22;55756;45.582;11.484;2022-12-18T00:06:51;5.50;74.10
68766;DHT22;55756;45.582;11.484;2022-12-18T00:09:18;5.50;74.40
68766;DHT22;55756;45.582;11.484;2022-12-18T00:11:43;5.40;74.90
68766;DHT22;55756;45.582;11.484;2022-12-18T00:14:10;5.40;75.20
68766;DHT22;55756;45.582;11.484;2022-12-18T00:16:36;5.30;75.10
68766;DHT22;55756;45.582;11.484;2022-12-18T00:19:03;5.30;75.20
68766;DHT22;55756;45.582;11.484;2022-12-18T00:21:29;5.20;75.60
68766;DHT22;55756;45.582;11.484;2022-12-18T00:23:55;5.20;75.80
68766;DHT22;55756;45.582;11.484;2022-12-18T00:26:24;5.10;76.00
68766;DHT22;55756;45.582;11.484;2022-12-18T00:28:54;5.10;76.20
68766;DHT22;55756;45.582;11.484;2022-12-18T00:31:23;5.00;76.40
68766;DHT22;55756;45.582;11.484;2022-12-18T00:33:51;5.00;76.60
68766;DHT22;55756;45.582;11.484;2022-12-18T00:36:19;5.00;76.70
68766;DHT22;55756;45.582;11.484;2022-12-18T00:38:45;4.90;76.80
68766;DHT22;55756;45.582;11.484;2022-12-18T00:41:12;4.90;76.80
68766;DHT22;55756;45.582;11.484;2022-12-18T00:43:38;4.80;77.10
68766;DHT22;55756;45.582;11.484;2022-12-18T00:46:04;4.70;77.30
68766;DHT22;55756;45.582;11.484;2022-12-18T00:48:31;4.80;77.00
68766;DHT22;55756;45.582;11.484;2022-12-18T00:50:56;4.80;76.40
68766;DHT22;55756;45.582;11.484;2022-12-18T00:53:22;4.90;76.50
68766;DHT22;55756;45.582;11.484;2022-12-18T00:55:48;4.80;76.80
68766;DHT22;55756;45.582;11.484;2022-12-18T00:58:14;4.80;77.00
68766;DHT22;55756;45.582;11.484;2022-12-18T01:00:40;4.80;77.10
68766;DHT22;55756;45.582;11.484;2022-12-18T01:03:12;4.80;77.00
68766;DHT22;55756;45.582;11.484;2022-12-18T01:05:39;4.80;77.30
68766;DHT22;55756;45.582;11.484;2022-12-18T01:08:05;4.70;77.70
68766;DHT22;55756;45.582;11.484;2022-12-18T01:10:31;4.70;77.60
68766;DHT22;55756;45.582;11.484;2022-12-18T01:12:56;4.70;77.70
68766;DHT22;55756;45.582;11.484;2022-12-18T01:15:22;4.70;77.80
68766;DHT22;55756;45.582;11.484;2022-12-18T01:17:48;4.70;77.90
68766;DHT22;55756;45.582;11.484;2022-12-18T01:20:13;4.70;77.90
68766;DHT22;55756;45.582;11.484;2022-12-18T01:22:39;4.50;78.10
68766;DHT22;55756;45.582;11.484;2022-12-18T01:25:06;4.50;78.40
68766;DHT22;55756;45.582;11.484;2022-12-18T01:27:33;4.50;78.50
68766;DHT22;55756;45.582;11.484;2022-12-18T01:29:59;4.60;78.40
68766;DHT22;55756;45.582;11.484;2022-12-18T01:32:25;4.50;78.40
68766;DHT22;55756;45.582;11.484;2022-12-18T01:34:51;4.50;78.40
68766;DHT22;55756;45.582;11.484;2022-12-18T01:37:16;4.50;78.70
68766;DHT22;55756;45.582;11.484;2022-12-18T01:39:42;4.50;78.70
68766;DHT22;55756;45.582;11.484;2022-12-18T01:42:12;4.50;78.60
68766;DHT22;55756;45.582;11.484;2022-12-18T01:47:15;4.40;79.00
68766;DHT22;55756;45.582;11.484;2022-12-18T01:49:43;4.40;79.00
68766;DHT22;55756;45.582;11.484;2022-12-18T01:52:09;4.40;79.40
68766;DHT22;55756;45.582;11.484;2022-12-18T01:54:34;4.40;79.40
68766;DHT22;55756;45.582;11.484;2022-12-18T01:57:00;4.30;79.50
68766;DHT22;55756;45.582;11.484;2022-12-18T01:59:26;4.30;79.60
68766;DHT22;55756;45.582;11.484;2022-12-18T02:01:53;4.30;79.60
68766;DHT22;55756;45.582;11.484;2022-12-18T02:04:20;4.30;79.90
68766;DHT22;55756;45.582;11.484;2022-12-18T02:06:46;4.30;80.00
68766;DHT22;55756;45.582;11.484;2022-12-18T02:09:21;4.30;80.00
68766;DHT22;55756;45.582;11.484;2022-12-18T02:14:39;4.20;80.60
68766;DHT22;55756;45.582;11.484;2022-12-18T02:17:09;4.20;80.70
68766;DHT22;55756;45.582;11.484;2022-12-18T02:19:41;4.20;80.60
68766;DHT22;55756;45.582;11.484;2022-12-18T02:25:15;4.10;80.90
68766;DHT22;55756;45.582;11.484;2022-12-18T02:27:43;4.10;80.90
68766;DHT22;55756;45.582;11.484;2022-12-18T02:30:10;4.00;80.90
68766;DHT22;55756;45.582;11.484;2022-12-18T02:32:38;4.00;80.90
68766;DHT22;55756;45.582;11.484;2022-12-18T02:35:05;3.90;81.00
68766;DHT22;55756;45.582;11.484;2022-12-18T02:37:33;3.90;81.40
68766;DHT22;55756;45.582;11.484;2022-12-18T02:40:02;3.90;81.20
68766;DHT22;55756;45.582;11.484;2022-12-18T02:42:30;3.90;81.20
68766;DHT22;55756;45.582;11.484;2022-12-18T02:44:56;4.00;81.20
68766;DHT22;55756;45.582;11.484;2022-12-18T02:47:24;4.00;81.10
68766;DHT22;55756;45.582;11.484;2022-12-18T02:55:13;3.90;81.50
68766;DHT22;55756;45.582;11.484;2022-12-18T03:00:22;3.90;81.60
68766;DHT22;55756;45.582;11.484;2022-12-18T03:02:50;3.80;81.70
68766;DHT22;55756;45.582;11.484;2022-12-18T03:05:28;3.80;81.90
68766;DHT22;55756;45.582;11.484;2022-12-18T03:07:57;3.80;82.10
68766;DHT22;55756;45.582;11.484;2022-12-18T03:10:28;3.80;82.10
68766;DHT22;55756;45.582;11.484;2022-12-18T03:13:04;3.60;82.60
68766;DHT22;55756;45.582;11.484;2022-12-18T03:15:34;3.60;83.20
68766;DHT22;55756;45.582;11.484;2022-12-18T03:18:13;3.60;82.90
68766;DHT22;55756;45.582;11.484;2022-12-18T03:20:42;3.60;83.10
68766;DHT22;55756;45.582;11.484;2022-12-18T03:23:12;3.60;82.90
68766;DHT22;55756;45.582;11.484;2022-12-18T03:25:40;3.50;83.20
68766;DHT22;55756;45.582;11.484;2022-12-18T03:28:07;3.40;83.30
68766;DHT22;55756;45.582;11.484;2022-12-18T03:30:35;3.40;83.60
68766;DHT22;55756;45.582;11.484;2022-12-18T03:33:15;3.50;83.80
68766;DHT22;55756;45.582;11.484;2022-12-18T03:35:45;3.50;83.60
68766;DHT22;55756;45.582;11.484;2022-12-18T03:38:12;3.50;83.50
68766;DHT22;55756;45.582;11.484;2022-12-18T03:43:32;3.50;83.30
68766;DHT22;55756;45.582;11.484;2022-12-18T03:46:08;3.50;83.40
68766;DHT22;55756;45.582;11.484;2022-12-18T03:48:41;3.50;83.10
68766;DHT22;55756;45.582;11.484;2022-12-18T03:51:14;3.50;83.20
68766;DHT22;55756;45.582;11.484;2022-12-18T03:53:51;3.30;83.30
68766;DHT22;55756;45.582;11.484;2022-12-18T03:56:21;3.30;83.20
68766;DHT22;55756;45.582;11.484;2022-12-18T03:58:49;3.30;83.40
68766;DHT22;55756;45.582;11.484;2022-12-18T04:01:19;3.30;83.30
68766;DHT22;55756;45.582;11.484;2022-12-18T04:03:46;3.20;83.50
68766;DHT22;55756;45.582;11.484;2022-12-18T04:06:16;3.20;83.80
68766;DHT22;55756;45.582;11.484;2022-12-18T04:08:43;3.10;83.60
68766;DHT22;55756;45.582;11.484;2022-12-18T04:11:12;3.10;83.80
68766;DHT22;55756;45.582;11.484;2022-12-18T04:13:38;3.00;84.10
68766;DHT22;55756;45.582;11.484;2022-12-18T04:16:07;3.00;84.30
68766;DHT22;55756;45.582;11.484;2022-12-18T04:18:38;3.00;84.20
68766;DHT22;55756;45.582;11.484;2022-12-18T04:21:04;3.00;84.10
68766;DHT22;55756;45.582;11.484;2022-12-18T04:23:29;3.00;84.20
68766;DHT22;55756;45.582;11.484;2022-12-18T04:25:57;2.90;84.40
68766;DHT22;55756;45.582;11.484;2022-12-18T04:28:38;3.00;84.40
68766;DHT22;55756;45.582;11.484;2022-12-18T04:31:04;3.00;84.40
68766;DHT22;55756;45.582;11.484;2022-12-18T04:33:30;2.90;84.20
68766;DHT22;55756;45.582;11.484;2022-12-18T04:35:57;2.90;84.60
68766;DHT22;55756;45.582;11.484;2022-12-18T04:38:24;2.90;84.60
68766;DHT22;55756;45.582;11.484;2022-12-18T04:40:57;2.90;84.40
68766;DHT22;55756;45.582;11.484;2022-12-18T04:43:25;2.90;84.40
68766;DHT22;55756;45.582;11.484;2022-12-18T04:45:51;2.90;84.40
68766;DHT22;55756;45.582;11.484;2022-12-18T04:48:17;2.90;84.20
68766;DHT22;55756;45.582;11.484;2022-12-18T04:50:42;2.90;84.50
68766;DHT22;55756;45.582;11.484;2022-12-18T04:53:08;2.80;84.60
68766;DHT22;55756;45.582;11.484;2022-12-18T04:55:34;2.80;84.40
68766;DHT22;55756;45.582;11.484;2022-12-18T04:57:59;2.80;84.60
68766;DHT22;55756;45.582;11.484;2022-12-18T05:00:25;2.80;84.50
68766;DHT22;55756;45.582;11.484;2022-12-18T05:02:51;2.70;84.60
68766;DHT22;55756;45.582;11.484;2022-12-18T05:05:17;2.70;84.60
68766;DHT22;55756;45.582;11.484;2022-12-18T05:07:43;2.70;84.70
68766;DHT22;55756;45.582;11.484;2022-12-18T05:10:09;2.70;84.70
68766;DHT22;55756;45.582;11.484;2022-12-18T05:12:35;2.70;84.70
68766;DHT22;55756;45.582;11.484;2022-12-18T05:15:20;2.70;84.80
68766;DHT22;55756;45.582;11.484;2022-12-18T05:17:46;2.70;84.70
68766;DHT22;55756;45.582;11.484;2022-12-18T05:20:11;2.70;84.70
68766;DHT22;55756;45.582;11.484;2022-12-18T05:22:37;2.70;84.80
68766;DHT22;55756;45.582;11.484;2022-12-18T05:25:03;2.60;85.10
68766;DHT22;55756;45.582;11.484;2022-12-18T05:27:29;2.60;85.60
68766;DHT22;55756;45.582;11.484;2022-12-18T05:29:55;2.60;85.60
68766;DHT22;55756;45.582;11.484;2022-12-18T05:32:21;2.60;85.60
68766;DHT22;55756;45.582;11.484;2022-12-18T05:34:46;2.50;85.60
68766;DHT22;55756;45.582;11.484;2022-12-18T05:37:12;2.50;85.70
68766;DHT22;55756;45.582;11.484;2022-12-18T05:39:38;2.50;85.80
68766;DHT22;55756;45.582;11.484;2022-12-18T05:42:03;2.40;85.60
68766;DHT22;55756;45.582;11.484;2022-12-18T05:44:29;2.40;85.70
68766;DHT22;55756;45.582;11.484;2022-12-18T05:46:55;2.40;85.60
68766;DHT22;55756;45.582;11.484;2022-12-18T05:49:20;2.40;85.50
68766;DHT22;55756;45.582;11.484;2022-12-18T05:51:46;2.40;85.60
68766;DHT22;55756;45.582;11.484;2022-12-18T05:54:11;2.40;85.70
68766;DHT22;55756;45.582;11.484;2022-12-18T05:56:37;2.30;85.70
68766;DHT22;55756;45.582;11.484;2022-12-18T05:59:03;2.20;85.70
68766;DHT22;55756;45.582;11.484;2022-12-18T06:01:28;2.20;86.30
68766;DHT22;55756;45.582;11.484;2022-12-18T06:03:54;2.30;86.10
68766;DHT22;55756;45.582;11.484;2022-12-18T06:06:21;2.20;86.10
68766;DHT22;55756;45.582;11.484;2022-12-18T06:08:48;2.10;86.10
68766;DHT22;55756;45.582;11.484;2022-12-18T06:11:16;2.10;86.00
68766;DHT22;55756;45.582;11.484;2022-12-18T06:13:42;2.10;86.20
68766;DHT22;55756;45.582;11.484;2022-12-18T06:16:07;2.10;86.20
68766;DHT22;55756;45.582;11.484;2022-12-18T06:18:33;2.10;86.40
68766;DHT22;55756;45.582;11.484;2022-12-18T06:21:03;2.20;86.40
68766;DHT22;55756;45.582;11.484;2022-12-18T06:23:29;2.20;86.20
68766;DHT22;55756;45.582;11.484;2022-12-18T06:25:54;2.20;86.30
68766;DHT22;55756;45.582;11.484;2022-12-18T06:28:20;2.30;86.00
68766;DHT22;55756;45.582;11.484;2022-12-18T06:30:47;2.20;86.20
68766;DHT22;55756;45.582;11.484;2022-12-18T06:33:13;2.10;86.10
68766;DHT22;55756;45.582;11.484;2022-12-18T06:35:40;2.10;86.30
68766;DHT22;55756;45.582;11.484;2022-12-18T06:38:05;2.20;86.50
68766;DHT22;55756;45.582;11.484;2022-12-18T06:40:31;2.10;86.60
68766;DHT22;55756;45.582;11.484;2022-12-18T06:42:57;2.10;86.40
68766;DHT22;55756;45.582;11.484;2022-12-18T06:45:23;2.10;86.20
68766;DHT22;55756;45.582;11.484;2022-12-18T06:47:49;2.10;86.30
68766;DHT22;55756;45.582;11.484;2022-12-18T06:50:15;2.10;86.30
68766;DHT22;55756;45.582;11.484;2022-12-18T06:52:41;2.10;86.20
68766;DHT22;55756;45.582;11.484;2022-12-18T06:55:08;2.10;86.10
68766;DHT22;55756;45.582;11.484;2022-12-18T06:57:33;2.10;86.10
68766;DHT22;55756;45.582;11.484;2022-12-18T06:59:59;2.10;86.10
68766;DHT22;55756;45.582;11.484;2022-12-18T07:02:25;2.10;86.00
68766;DHT22;55756;45.582;11.484;2022-12-18T07:04:51;2.10;86.00
68766;DHT22;55756;45.582;11.484;2022-12-18T07:07:16;2.10;86.10
68766;DHT22;55756;45.582;11.484;2022-12-18T07:09:42;2.00;86.10
68766;DHT22;55756;45.582;11.484;2022-12-18T07:12:08;2.10;86.00
68766;DHT22;55756;45.582;11.484;2022-12-18T07:14:34;2.10;86.00
68766;DHT22;55756;45.582;11.484;2022-12-18T07:17:00;2.10;86.10
68766;DHT22;55756;45.582;11.484;2022-12-18T07:19:25;2.20;86.00
68766;DHT22;55756;45.582;11.484;2022-12-18T07:21:51;2.10;86.20
68766;DHT22;55756;45.582;11.484;2022-12-18T07:24:17;2.10;86.10
68766;DHT22;55756;45.582;11.484;2022-12-18T07:26:45;2.20;86.50
68766;DHT22;55756;45.582;11.484;2022-12-18T07:29:10;2.20;86.00
68766;DHT22;55756;45.582;11.484;2022-12-18T07:31:36;2.20;86.70
68766;DHT22;55756;45.582;11.484;2022-12-18T07:34:02;2.40;86.50
68766;DHT22;55756;45.582;11.484;2022-12-18T07:36:27;2.40;86.20
68766;DHT22;55756;45.582;11.484;2022-12-18T07:38:53;2.50;86.00
68766;DHT22;55756;45.582;11.484;2022-12-18T07:41:19;2.60;85.90
68766;DHT22;55756;45.582;11.484;2022-12-18T07:43:45;2.60;85.30
68766;DHT22;55756;45.582;11.484;2022-12-18T07:46:11;2.60;85.50
68766;DHT22;55756;45.582;11.484;2022-12-18T07:48:39;2.60;85.80
68766;DHT22;55756;45.582;11.484;2022-12-18T07:51:05;2.80;85.50
68766;DHT22;55756;45.582;11.484;2022-12-18T07:53:31;2.90;85.30
68766;DHT22;55756;45.582;11.484;2022-12-18T07:55:58;2.90;85.80
68766;DHT22;55756;45.582;11.484;2022-12-18T07:58:24;3.20;85.40
68766;DHT22;55756;45.582;11.484;2022-12-18T08:00:49;3.40;85.40
68766;DHT22;55756;45.582;11.484;2022-12-18T08:03:15;3.70;84.80
68766;DHT22;55756;45.582;11.484;2022-12-18T08:05:41;4.10;84.30
68766;DHT22;55756;45.582;11.484;2022-12-18T08:08:06;4.50;83.70
68766;DHT22;55756;45.582;11.484;2022-12-18T08:10:32;5.00;83.20
68766;DHT22;55756;45.582;11.484;2022-12-18T08:12:58;5.70;81.90
68766;DHT22;55756;45.582;11.484;2022-12-18T08:15:23;6.30;80.00
68766;DHT22;55756;45.582;11.484;2022-12-18T08:17:49;6.60;77.80
68766;DHT22;55756;45.582;11.484;2022-12-18T08:20:15;6.90;76.40
68766;DHT22;55756;45.582;11.484;2022-12-18T08:22:41;7.00;74.80
68766;DHT22;55756;45.582;11.484;2022-12-18T08:25:07;7.10;73.80
68766;DHT22;55756;45.582;11.484;2022-12-18T08:27:33;7.30;72.90
68766;DHT22;55756;45.582;11.484;2022-12-18T08:29:59;7.30;71.50
68766;DHT22;55756;45.582;11.484;2022-12-18T08:32:25;7.40;71.00
68766;DHT22;55756;45.582;11.484;2022-12-18T08:34:51;7.40;70.40
68766;DHT22;55756;45.582;11.484;2022-12-18T08:37:16;7.40;70.10
68766;DHT22;55756;45.582;11.484;2022-12-18T08:39:42;7.40;69.50
68766;DHT22;55756;45.582;11.484;2022-12-18T08:42:08;7.30;69.90
68766;DHT22;55756;45.582;11.484;2022-12-18T08:44:52;7.20;70.10
68766;DHT22;55756;45.582;11.484;2022-12-18T08:47:17;7.10;69.90
68766;DHT22;55756;45.582;11.484;2022-12-18T08:49:43;7.20;70.00
68766;DHT22;55756;45.582;11.484;2022-12-18T08:52:09;7.20;69.90
68766;DHT22;55756;45.582;11.484;2022-12-18T08:54:34;7.20;70.10
68766;DHT22;55756;45.582;11.484;2022-12-18T08:57:00;7.20;70.00
68766;DHT22;55756;45.582;11.484;2022-12-18T08:59:25;7.20;70.20
68766;DHT22;55756;45.582;11.484;2022-12-18T09:01:53;7.30;70.10
68766;DHT22;55756;45.582;11.484;2022-12-18T09:04:18;7.20;68.80
68766;DHT22;55756;45.582;11.484;2022-12-18T09:06:44;7.20;68.80
68766;DHT22;55756;45.582;11.484;2022-12-18T09:09:10;7.20;69.00
68766;DHT22;55756;45.582;11.484;2022-12-18T09:11:36;7.30;68.80
68766;DHT22;55756;45.582;11.484;2022-12-18T09:14:02;7.40;69.40
68766;DHT22;55756;45.582;11.484;2022-12-18T09:16:28;7.40;69.20
68766;DHT22;55756;45.582;11.484;2022-12-18T09:18:54;7.50;69.30
68766;DHT22;55756;45.582;11.484;2022-12-18T09:21:26;7.60;69.10
68766;DHT22;55756;45.582;11.484;2022-12-18T09:23:55;7.50;69.00
68766;DHT22;55756;45.582;11.484;2022-12-18T09:26:21;7.60;69.50
68766;DHT22;55756;45.582;11.484;2022-12-18T09:28:47;7.60;69.50
68766;DHT22;55756;45.582;11.484;2022-12-18T09:31:13;7.70;69.60
68766;DHT22;55756;45.582;11.484;2022-12-18T09:33:38;7.70;69.50
68766;DHT22;55756;45.582;11.484;2022-12-18T09:36:05;7.80;69.40
68766;DHT22;55756;45.582;11.484;2022-12-18T09:38:32;7.90;69.40
68766;DHT22;55756;45.582;11.484;2022-12-18T09:41:30;8.00;69.40
68766;DHT22;55756;45.582;11.484;2022-12-18T09:43:47;8.00;69.70
68766;DHT22;55756;45.582;11.484;2022-12-18T09:46:20;8.10;70.00
68766;DHT22;55756;45.582;11.484;2022-12-18T09:48:51;8.10;70.00
68766;DHT22;55756;45.582;11.484;2022-12-18T09:51:33;8.20;70.60
68766;DHT22;55756;45.582;11.484;2022-12-18T09:54:04;8.30;69.70
68766;DHT22;55756;45.582;11.484;2022-12-18T09:56:31;8.40;68.50
68766;DHT22;55756;45.582;11.484;2022-12-18T09:59:00;8.40;66.20
68766;DHT22;55756;45.582;11.484;2022-12-18T10:01:26;8.40;65.20
68766;DHT22;55756;45.582;11.484;2022-12-18T10:03:52;8.60;64.40
68766;DHT22;55756;45.582;11.484;2022-12-18T10:06:35;8.50;65.10
68766;DHT22;55756;45.582;11.484;2022-12-18T10:14:27;8.70;61.20
68766;DHT22;55756;45.582;11.484;2022-12-18T10:24:25;8.50;57.00
68766;DHT22;55756;45.582;11.484;2022-12-18T10:26:52;8.40;57.30
68766;DHT22;55756;45.582;11.484;2022-12-18T10:29:18;8.40;56.80
68766;DHT22;55756;45.582;11.484;2022-12-18T10:31:44;8.50;56.90
68766;DHT22;55756;45.582;11.484;2022-12-18T10:34:10;8.50;56.60
68766;DHT22;55756;45.582;11.484;2022-12-18T10:36:36;8.40;57.40
68766;DHT22;55756;45.582;11.484;2022-12-18T10:39:15;8.40;57.50
68766;DHT22;55756;45.582;11.484;2022-12-18T10:41:41;8.30;57.30
68766;DHT22;55756;45.582;11.484;2022-12-18T10:46:36;8.40;57.30
68766;DHT22;55756;45.582;11.484;2022-12-18T10:49:02;8.40;56.40
68766;DHT22;55756;45.582;11.484;2022-12-18T10:51:32;8.40;57.20
68766;DHT22;55756;45.582;11.484;2022-12-18T10:54:02;8.40;58.40
68766;DHT22;55756;45.582;11.484;2022-12-18T10:56:29;8.50;58.20
68766;DHT22;55756;45.582;11.484;2022-12-18T10:58:58;8.50;57.70
68766;DHT22;55756;45.582;11.484;2022-12-18T11:01:24;8.40;56.70
68766;DHT22;55756;45.582;11.484;2022-12-18T11:06:19;8.60;57.60
68766;DHT22;55756;45.582;11.484;2022-12-18T11:09:06;8.60;57.30
68766;DHT22;55756;45.582;11.484;2022-12-18T11:11:47;8.70;58.00
68766;DHT22;55756;45.582;11.484;2022-12-18T11:14:15;8.70;57.40
68766;DHT22;55756;45.582;11.484;2022-12-18T11:16:43;8.70;57.20
68766;DHT22;55756;45.582;11.484;2022-12-18T11:19:11;8.60;57.10
68766;DHT22;55756;45.582;11.484;2022-12-18T11:21:41;8.60;56.70
68766;DHT22;55756;45.582;11.484;2022-12-18T11:24:14;8.60;56.10
68766;DHT22;55756;45.582;11.484;2022-12-18T11:26:43;8.70;56.20
68766;DHT22;55756;45.582;11.484;2022-12-18T11:29:10;8.70;55.80
68766;DHT22;55756;45.582;11.484;2022-12-18T11:31:36;8.70;55.40
68766;DHT22;55756;45.582;11.484;2022-12-18T11:34:16;8.70;55.40
68766;DHT22;55756;45.582;11.484;2022-12-18T11:36:46;8.70;54.30
68766;DHT22;55756;45.582;11.484;2022-12-18T11:39:15;8.60;55.00
68766;DHT22;55756;45.582;11.484;2022-12-18T11:44:32;8.70;55.50
68766;DHT22;55756;45.582;11.484;2022-12-18T11:47:37;8.70;55.10
68766;DHT22;55756;45.582;11.484;2022-12-18T11:49:53;8.70;56.30
68766;DHT22;55756;45.582;11.484;2022-12-18T11:54:46;8.70;54.90
68766;DHT22;55756;45.582;11.484;2022-12-18T11:57:30;8.70;54.30
68766;DHT22;55756;45.582;11.484;2022-12-18T12:00:12;8.60;54.40
68766;DHT22;55756;45.582;11.484;2022-12-18T12:03:03;8.60;54.20
68766;DHT22;55756;45.582;11.484;2022-12-18T12:08:01;8.70;53.70
68766;DHT22;55756;45.582;11.484;2022-12-18T12:13:16;8.70;54.30
68766;DHT22;55756;45.582;11.484;2022-12-18T12:23:58;8.60;54.80
68766;DHT22;55756;45.582;11.484;2022-12-18T12:39:08;8.30;55.60
68766;DHT22;55756;45.582;11.484;2022-12-18T12:41:36;8.30;55.90
68766;DHT22;55756;45.582;11.484;2022-12-18T12:44:24;8.30;56.20
68766;DHT22;55756;45.582;11.484;2022-12-18T12:46:51;8.40;56.30
68766;DHT22;55756;45.582;11.484;2022-12-18T12:49:18;8.40;56.50
68766;DHT22;55756;45.582;11.484;2022-12-18T12:51:50;8.30;57.10
68766;DHT22;55756;45.582;11.484;2022-12-18T12:54:21;8.40;57.10
68766;DHT22;55756;45.582;11.484;2022-12-18T12:56:53;8.30;56.70
68766;DHT22;55756;45.582;11.484;2022-12-18T12:59:31;8.30;56.70
68766;DHT22;55756;45.582;11.484;2022-12-18T13:02:20;8.30;56.10
68766;DHT22;55756;45.582;11.484;2022-12-18T13:07:32;8.20;57.20
68766;DHT22;55756;45.582;11.484;2022-12-18T13:18:19;8.40;57.30
68766;DHT22;55756;45.582;11.484;2022-12-18T13:25:53;8.40;58.20
68766;DHT22;55756;45.582;11.484;2022-12-18T13:30:54;8.30;59.40
68766;DHT22;55756;45.582;11.484;2022-12-18T13:35:53;8.40;59.40
68766;DHT22;55756;45.582;11.484;2022-12-18T13:40:57;8.40;57.60
68766;DHT22;55756;45.582;11.484;2022-12-18T13:43:44;8.40;58.40
68766;DHT22;55756;45.582;11.484;2022-12-18T13:51:32;8.20;59.30
68766;DHT22;55756;45.582;11.484;2022-12-18T13:54:00;8.10;58.50
68766;DHT22;55756;45.582;11.484;2022-12-18T13:56:30;8.10;58.50
68766;DHT22;55756;45.582;11.484;2022-12-18T13:59:13;8.10;59.50
68766;DHT22;55756;45.582;11.484;2022-12-18T14:01:47;8.30;59.60
68766;DHT22;55756;45.582;11.484;2022-12-18T14:06:45;8.30;60.00
68766;DHT22;55756;45.582;11.484;2022-12-18T14:09:13;8.30;60.40
68766;DHT22;55756;45.582;11.484;2022-12-18T14:11:39;8.20;59.70
68766;DHT22;55756;45.582;11.484;2022-12-18T14:14:05;8.10;59.80
68766;DHT22;55756;45.582;11.484;2022-12-18T14:16:32;8.00;59.80
68766;DHT22;55756;45.582;11.484;2022-12-18T14:18:59;8.10;59.70
68766;DHT22;55756;45.582;11.484;2022-12-18T14:21:26;8.00;60.20
68766;DHT22;55756;45.582;11.484;2022-12-18T14:26:37;7.90;61.30
68766;DHT22;55756;45.582;11.484;2022-12-18T14:31:44;7.80;61.60
68766;DHT22;55756;45.582;11.484;2022-12-18T14:34:16;7.80;61.70
68766;DHT22;55756;45.582;11.484;2022-12-18T14:36:44;7.80;61.80
68766;DHT22;55756;45.582;11.484;2022-12-18T14:39:17;7.70;62.50
68766;DHT22;55756;45.582;11.484;2022-12-18T14:41:43;7.80;62.30
68766;DHT22;55756;45.582;11.484;2022-12-18T14:44:10;7.80;62.30
68766;DHT22;55756;45.582;11.484;2022-12-18T14:46:42;7.90;62.50
68766;DHT22;55756;45.582;11.484;2022-12-18T14:52:06;7.90;62.60
68766;DHT22;55756;45.582;11.484;2022-12-18T14:54:45;7.80;62.50
68766;DHT22;55756;45.582;11.484;2022-12-18T14:59:40;7.80;62.40
68766;DHT22;55756;45.582;11.484;2022-12-18T15:02:18;7.70;63.00
68766;DHT22;55756;45.582;11.484;2022-12-18T15:04:45;7.70;62.60
68766;DHT22;55756;45.582;11.484;2022-12-18T15:07:13;7.70;63.20
68766;DHT22;55756;45.582;11.484;2022-12-18T15:09:39;7.60;63.70
68766;DHT22;55756;45.582;11.484;2022-12-18T15:12:15;7.60;63.10
68766;DHT22;55756;45.582;11.484;2022-12-18T15:14:45;7.50;62.70
68766;DHT22;55756;45.582;11.484;2022-12-18T15:17:21;7.50;62.90
68766;DHT22;55756;45.582;11.484;2022-12-18T15:19:47;7.40;63.30
68766;DHT22;55756;45.582;11.484;2022-12-18T15:24:42;7.30;65.10
68766;DHT22;55756;45.582;11.484;2022-12-18T15:27:21;7.20;65.20
68766;DHT22;55756;45.582;11.484;2022-12-18T15:30:11;7.10;66.60
68766;DHT22;55756;45.582;11.484;2022-12-18T15:32:40;7.00;66.90
68766;DHT22;55756;45.582;11.484;2022-12-18T15:37:35;6.90;68.50
68766;DHT22;55756;45.582;11.484;2022-12-18T15:40:00;6.80;69.10
68766;DHT22;55756;45.582;11.484;2022-12-18T15:42:27;6.70;69.60
68766;DHT22;55756;45.582;11.484;2022-12-18T15:45:12;6.70;69.90
68766;DHT22;55756;45.582;11.484;2022-12-18T15:47:38;6.60;70.30
68766;DHT22;55756;45.582;11.484;2022-12-18T15:50:04;6.50;70.80
68766;DHT22;55756;45.582;11.484;2022-12-18T15:52:31;6.40;71.00
68766;DHT22;55756;45.582;11.484;2022-12-18T15:54:59;6.30;71.30
68766;DHT22;55756;45.582;11.484;2022-12-18T15:57:43;6.30;71.60
68766;DHT22;55756;45.582;11.484;2022-12-18T16:00:11;6.20;72.10
68766;DHT22;55756;45.582;11.484;2022-12-18T16:02:37;6.10;72.40
68766;DHT22;55756;45.582;11.484;2022-12-18T16:05:05;6.10;72.60
68766;DHT22;55756;45.582;11.484;2022-12-18T16:07:35;6.00;72.70
68766;DHT22;55756;45.582;11.484;2022-12-18T16:10:00;5.90;72.90
68766;DHT22;55756;45.582;11.484;2022-12-18T16:12:26;5.90;72.90
68766;DHT22;55756;45.582;11.484;2022-12-18T16:14:52;5.90;72.90
68766;DHT22;55756;45.582;11.484;2022-12-18T16:17:17;5.80;72.80
68766;DHT22;55756;45.582;11.484;2022-12-18T16:19:45;5.70;73.10
68766;DHT22;55756;45.582;11.484;2022-12-18T16:22:21;5.70;73.40
68766;DHT22;55756;45.582;11.484;2022-12-18T16:24:48;5.70;73.20
68766;DHT22;55756;45.582;11.484;2022-12-18T16:32:40;5.50;74.10
68766;DHT22;55756;45.582;11.484;2022-12-18T16:35:06;5.30;74.10
68766;DHT22;55756;45.582;11.484;2022-12-18T16:37:31;5.10;74.90
68766;DHT22;55756;45.582;11.484;2022-12-18T16:39:57;5.00;75.10
68766;DHT22;55756;45.582;11.484;2022-12-18T16:42:23;5.00;75.40
68766;DHT22;55756;45.582;11.484;2022-12-18T16:44:49;4.90;75.30
68766;DHT22;55756;45.582;11.484;2022-12-18T16:47:15;4.90;75.30
68766;DHT22;55756;45.582;11.484;2022-12-18T16:49:42;4.80;75.40
68766;DHT22;55756;45.582;11.484;2022-12-18T16:52:09;4.70;75.80
68766;DHT22;55756;45.582;11.484;2022-12-18T16:54:35;4.70;76.00
68766;DHT22;55756;45.582;11.484;2022-12-18T16:57:01;4.70;75.80
68766;DHT22;55756;45.582;11.484;2022-12-18T16:59:27;4.70;75.70
68766;DHT22;55756;45.582;11.484;2022-12-18T17:01:53;4.70;75.80
68766;DHT22;55756;45.582;11.484;2022-12-18T17:04:20;4.60;75.90
68766;DHT22;55756;45.582;11.484;2022-12-18T17:06:45;4.70;75.90
68766;DHT22;55756;45.582;11.484;2022-12-18T17:09:17;4.70;76.00
68766;DHT22;55756;45.582;11.484;2022-12-18T17:11:50;4.60;76.00
68766;DHT22;55756;45.582;11.484;2022-12-18T17:14:18;4.50;76.10
68766;DHT22;55756;45.582;11.484;2022-12-18T17:16:44;4.40;76.70
68766;DHT22;55756;45.582;11.484;2022-12-18T17:19:11;4.40;76.90
68766;DHT22;55756;45.582;11.484;2022-12-18T17:21:36;4.40;76.80
68766;DHT22;55756;45.582;11.484;2022-12-18T17:24:02;4.30;76.90
68766;DHT22;55756;45.582;11.484;2022-12-18T17:26:28;4.30;77.10
68766;DHT22;55756;45.582;11.484;2022-12-18T17:28:56;4.20;77.10
68766;DHT22;55756;45.582;11.484;2022-12-18T17:31:24;4.20;77.10
68766;DHT22;55756;45.582;11.484;2022-12-18T17:33:50;4.20;77.40
68766;DHT22;55756;45.582;11.484;2022-12-18T17:36:17;4.20;77.70
68766;DHT22;55756;45.582;11.484;2022-12-18T17:38:43;4.20;77.60